.
WxDataArchive / Data Records for 2015-12-22
2015-12-21 December 2015 2015-12-23

Data Records for Tuesday, 22 December 2015

Time	Temp	Chill	HIndex	Humid	Dewpt	 Wind 	HiWind	WindDir	Rain 	Barom
-----	----	-----	------	-----	-----	------	------	-------	-----	-----
00:00	51.9	51.9	51.9	92	49.6	0	2	68	0.00	29.766 
00:05	51.9	51.9	51.9	92	49.6	0	1	68	0.00	29.766 
00:10	52.0	52.0	52.0	92	49.7	0	2	68	0.01	29.766 
00:15	52.0	52.0	52.0	92	49.7	0	1	68	0.00	29.761 
00:20	52.0	52.0	52.0	92	49.7	0	1	68	0.00	29.761 
00:25	52.0	52.0	52.0	92	49.7	0	1	68	0.00	29.761 
00:30	52.2	52.2	52.2	92	49.9	0	1	68	0.01	29.755 
00:35	52.2	52.2	52.2	92	49.9	0	1	68	0.00	29.755 
00:40	52.2	52.2	52.2	92	49.9	0	1	68	0.00	29.755 
00:45	52.2	52.2	52.2	92	49.9	0	1	68	0.00	29.753 
00:50	52.2	52.2	52.2	92	49.9	0	1	68	0.00	29.753 
00:55	52.0	52.0	52.0	92	49.7	0	1	68	0.00	29.753 
01:00	52.0	52.0	52.0	93	50.0	0	1	68	0.00	29.748 
01:05	52.0	52.0	52.0	93	50.0	0	1	68	0.00	29.748 
01:10	52.2	52.2	52.2	93	50.2	0	1	68	0.00	29.748 
01:15	52.2	52.2	52.2	93	50.2	0	2	68	0.00	29.739 
01:20	52.2	52.2	52.2	93	50.2	0	1	68	0.00	29.739 
01:25	52.2	52.2	52.2	93	50.2	0	1	68	0.00	29.739 
01:30	52.3	52.3	52.3	93	50.3	0	0	---	0.00	29.733 
01:35	52.2	52.2	52.2	93	50.2	0	1	68	0.00	29.733 
01:40	52.2	52.2	52.2	93	50.2	0	1	68	0.00	29.733 
01:45	52.2	52.2	52.2	93	50.2	0	1	68	0.00	29.723 
01:50	52.2	52.2	52.2	93	50.2	0	1	68	0.00	29.723 
01:55	52.2	52.2	52.2	94	50.5	0	1	68	0.00	29.723 
02:00	52.2	52.2	52.2	94	50.5	0	0	---	0.00	29.722 
02:05	52.2	52.2	52.2	94	50.5	0	0	---	0.00	29.722 
02:10	52.2	52.2	52.2	94	50.5	0	0	---	0.00	29.722 
02:15	52.2	52.2	52.2	94	50.5	0	0	---	0.00	29.717 
02:20	52.2	52.2	52.2	94	50.5	0	1	68	0.00	29.717 
02:25	52.2	52.2	52.2	94	50.5	0	0	---	0.00	29.717 
02:30	52.2	52.2	52.2	94	50.5	0	1	68	0.00	29.707 
02:35	52.2	52.2	52.2	94	50.5	0	0	---	0.00	29.707 
02:40	52.2	52.2	52.2	94	50.5	0	2	68	0.00	29.707 
02:45	52.2	52.2	52.2	94	50.5	0	0	---	0.00	29.714 
02:50	52.2	52.2	52.2	94	50.5	0	1	68	0.00	29.714 
02:55	52.0	52.0	52.0	94	50.3	0	1	68	0.00	29.714 
03:00	52.0	52.0	52.0	94	50.3	0	0	---	0.00	29.708 
03:05	52.0	52.0	52.0	94	50.3	0	0	---	0.00	29.708 
03:10	52.0	52.0	52.0	94	50.3	0	1	68	0.00	29.708 
03:15	52.0	52.0	52.0	94	50.3	0	1	68	0.00	29.704 
03:20	52.0	52.0	52.0	94	50.3	0	0	---	0.00	29.704 
03:25	52.0	52.0	52.0	94	50.3	0	1	68	0.00	29.704 
03:30	52.0	52.0	52.0	94	50.3	0	1	68	0.00	29.710 
03:35	52.2	52.2	52.2	94	50.5	0	1	68	0.00	29.710 
03:40	52.2	52.2	52.2	94	50.5	0	0	---	0.00	29.710 
03:45	52.2	52.2	52.2	94	50.5	0	1	68	0.00	29.713 
03:50	52.2	52.2	52.2	94	50.5	0	1	68	0.00	29.713 
03:55	52.2	52.2	52.2	94	50.5	0	1	68	0.00	29.713 
04:00	52.2	52.2	52.2	94	50.5	0	0	---	0.00	29.703 
04:05	52.2	52.2	52.2	94	50.5	0	1	68	0.01	29.703 
04:10	52.2	52.2	52.2	94	50.5	0	2	68	0.00	29.703 
04:15	52.2	52.2	52.2	94	50.5	0	1	68	0.00	29.702 
04:20	52.0	52.0	52.0	94	50.3	0	1	68	0.00	29.702 
04:25	52.0	52.0	52.0	94	50.3	0	0	---	0.00	29.702 
04:30	52.0	52.0	52.0	95	50.6	0	0	---	0.00	29.697 
04:35	52.0	52.0	52.0	95	50.6	0	1	68	0.00	29.697 
04:40	52.0	52.0	52.0	95	50.6	0	0	---	0.00	29.697 
04:45	52.0	52.0	52.0	95	50.6	0	0	---	0.00	29.697 
04:50	52.0	52.0	52.0	95	50.6	0	0	---	0.00	29.697 
04:55	52.0	52.0	52.0	95	50.6	0	1	68	0.00	29.697 
05:00	52.0	52.0	52.0	95	50.6	0	1	68	0.00	29.687 
05:05	52.0	52.0	52.0	95	50.6	0	1	68	0.00	29.687 
05:10	52.2	52.2	52.2	95	50.8	0	2	68	0.00	29.687 
05:15	52.2	52.2	52.2	95	50.8	0	1	68	0.00	29.695 
05:20	52.2	52.2	52.2	95	50.8	0	1	68	0.00	29.695 
05:25	52.2	52.2	52.2	95	50.8	0	1	68	0.00	29.695 
05:30	52.2	52.2	52.2	95	50.8	0	1	68	0.00	29.703 
05:35	52.2	52.2	52.2	95	50.8	0	1	68	0.00	29.703 
05:40	52.2	52.2	52.2	95	50.8	0	1	68	0.00	29.703 
05:45	52.2	52.2	52.2	95	50.8	0	1	22	0.00	29.703 
05:50	52.0	52.0	52.0	95	50.6	0	1	22	0.00	29.703 
05:55	52.0	52.0	52.0	95	50.6	0	2	338	0.00	29.703 
06:00	51.9	51.9	51.9	95	50.5	0	2	338	0.00	29.707 
06:05	51.7	51.7	51.7	95	50.3	0	3	315	0.00	29.707 
06:10	51.7	51.7	51.7	95	50.3	0	1	315	0.00	29.707 
06:15	51.7	51.7	51.7	95	50.3	0	1	315	0.00	29.710 
06:20	51.6	51.6	51.6	95	50.2	0	1	315	0.00	29.710 
06:25	51.4	51.4	51.4	95	50.0	0	1	315	0.00	29.710 
06:30	51.4	51.4	51.4	95	50.0	0	1	315	0.00	29.719 
06:35	51.3	51.3	51.3	94	49.6	0	3	315	0.00	29.719 
06:40	51.0	51.0	51.0	94	49.3	1	2	315	0.00	29.719 
06:45	50.8	50.8	50.8	94	49.1	0	2	315	0.00	29.733 
06:50	50.7	50.7	50.7	94	49.0	0	1	315	0.00	29.733 
06:55	50.5	50.5	50.5	94	48.8	0	1	315	0.00	29.733 
07:00	50.4	50.4	50.4	94	48.7	1	4	315	0.00	29.734 
07:05	49.9	49.9	49.9	93	48.0	2	4	292	0.00	29.734 
07:10	49.6	49.6	49.6	93	47.7	2	4	292	0.00	29.734 
07:15	49.5	49.5	49.5	92	47.3	1	4	270	0.00	29.748 
07:20	49.4	49.4	49.4	92	47.2	1	5	292	0.00	29.748 
07:25	49.2	49.2	49.2	92	47.0	1	3	292	0.00	29.748 
07:30	49.2	49.2	49.2	92	47.0	0	2	292	0.00	29.753 
07:35	49.1	49.1	49.1	91	46.6	0	3	292	0.00	29.753 
07:40	49.1	49.1	49.1	91	46.6	0	2	292	0.00	29.753 
07:45	48.9	48.9	48.9	91	46.4	0	2	292	0.00	29.758 
07:50	48.9	48.9	48.9	91	46.4	1	3	292	0.00	29.758 
07:55	48.8	48.8	48.8	91	46.3	0	2	292	0.00	29.758 
08:00	48.8	48.8	48.8	91	46.3	0	1	292	0.00	29.769 
08:05	48.8	48.8	48.8	91	46.3	0	1	292	0.00	29.769 
08:10	48.8	48.8	48.8	91	46.3	0	1	292	0.00	29.769 
08:15	48.6	48.6	48.6	91	46.1	0	0	---	0.00	29.771 
08:20	48.6	48.6	48.6	91	46.1	0	0	---	0.00	29.771 
08:25	48.6	48.6	48.6	91	46.1	0	1	292	0.00	29.771 
08:30	48.5	48.5	48.5	91	46.0	0	1	292	0.00	29.783 
08:35	48.3	48.3	48.3	91	45.8	0	1	292	0.00	29.783 
08:40	48.3	48.3	48.3	91	45.8	0	1	292	0.00	29.783 
08:45	48.2	48.2	48.2	91	45.7	0	1	292	0.00	29.785 
08:50	48.2	48.2	48.2	91	45.7	0	1	292	0.00	29.785 
08:55	48.2	48.2	48.2	91	45.7	0	1	292	0.00	29.785 
09:00	48.0	48.0	48.0	91	45.5	0	2	292	0.00	29.787 
09:05	48.0	48.0	48.0	91	45.5	0	1	292	0.00	29.787 
09:10	48.0	48.0	48.0	91	45.5	0	1	292	0.00	29.787 
09:15	47.9	47.9	47.9	91	45.4	0	1	292	0.00	29.796 
09:20	47.9	47.9	47.9	91	45.4	0	1	292	0.00	29.796 
09:25	47.9	47.9	47.9	91	45.4	0	1	292	0.00	29.796 
09:30	47.9	47.9	47.9	91	45.4	0	2	292	0.00	29.806 
09:35	47.7	47.7	47.7	91	45.2	1	3	292	0.00	29.806 
09:40	47.6	47.6	47.6	91	45.1	0	2	292	0.00	29.806 
09:45	47.4	47.4	47.4	91	44.9	0	3	292	0.00	29.816 
09:50	47.3	47.3	47.3	91	44.8	0	2	292	0.00	29.816 
09:55	47.1	47.1	47.1	91	44.6	0	3	292	0.00	29.816 
10:00	47.1	47.1	47.1	91	44.6	0	2	292	0.00	29.822 
10:05	47.1	47.1	47.1	91	44.6	0	1	292	0.00	29.822 
10:10	47.0	47.0	47.0	91	44.5	0	2	292	0.00	29.822 
10:15	46.8	46.8	46.8	91	44.3	1	3	292	0.00	29.826 
10:20	46.8	46.8	46.8	90	44.0	1	3	248	0.00	29.826 
10:25	46.8	46.8	46.8	90	44.0	1	4	248	0.00	29.826 
10:30	46.8	46.8	46.8	89	43.7	1	3	315	0.00	29.843 
10:35	46.8	46.8	46.8	89	43.7	0	2	270	0.00	29.843 
10:40	46.8	46.8	46.8	89	43.7	0	2	270	0.00	29.843 
10:45	46.8	46.8	46.8	88	43.4	1	3	270	0.00	29.842 
10:50	47.0	47.0	47.0	88	43.6	0	2	270	0.00	29.842 
10:55	47.1	47.1	47.1	88	43.7	1	2	270	0.00	29.842 
11:00	47.1	47.1	47.1	88	43.7	1	2	270	0.00	29.838 
11:05	47.3	47.3	47.3	88	43.9	0	1	270	0.00	29.838 
11:10	47.4	47.4	47.4	87	43.7	0	2	270	0.00	29.838 
11:15	47.3	47.3	47.3	85	43.0	1	3	270	0.00	29.838 
11:20	47.3	47.3	47.3	84	42.7	0	1	270	0.00	29.838 
11:25	47.1	47.1	47.1	83	42.2	1	2	270	0.00	29.838 
11:30	47.1	47.1	47.1	82	41.9	0	2	270	0.00	29.845 
11:35	47.3	47.3	47.3	81	41.8	0	2	270	0.00	29.845 
11:40	47.3	47.3	47.3	80	41.4	0	3	270	0.00	29.845 
11:45	47.4	47.4	47.4	81	41.9	1	3	270	0.00	29.848 
11:50	47.4	47.4	47.4	80	41.5	0	3	270	0.00	29.848 
11:55	47.3	47.3	47.3	80	41.4	1	3	270	0.00	29.848 
12:00	47.0	47.0	47.0	80	41.2	1	3	248	0.00	29.853 
12:05	46.8	46.8	46.8	79	40.6	1	2	248	0.00	29.853 
12:10	46.7	46.7	46.7	80	40.9	0	2	248	0.00	29.853 
12:15	46.5	46.5	46.5	80	40.7	1	3	248	0.00	29.854 
12:20	46.4	46.4	46.4	81	40.9	0	2	248	0.00	29.854 
12:25	46.4	46.4	46.4	81	40.9	0	3	248	0.00	29.854 
12:30	46.5	46.5	46.5	81	41.0	0	2	248	0.00	29.856 
12:35	46.5	46.5	46.5	81	41.0	0	5	248	0.00	29.856 
12:40	46.4	46.4	46.4	81	40.9	0	3	248	0.00	29.856 
12:45	46.4	46.4	46.4	81	40.9	0	2	248	0.00	29.860 
12:50	46.4	46.4	46.4	82	41.2	0	1	248	0.00	29.860 
12:55	46.4	46.4	46.4	81	40.9	0	3	248	0.00	29.860 
13:00	46.2	46.2	46.2	80	40.4	0	3	248	0.00	29.848 
13:05	46.2	46.2	46.2	80	40.4	0	3	248	0.00	29.848 
13:10	46.2	46.2	46.2	79	40.1	1	4	248	0.00	29.848 
13:15	46.1	46.1	46.1	79	40.0	0	1	248	0.00	29.843 
13:20	46.2	46.2	46.2	78	39.7	1	3	248	0.00	29.843 
13:25	46.2	46.2	46.2	78	39.7	0	2	248	0.00	29.843 
13:30	46.4	46.4	46.4	78	39.9	0	4	248	0.00	29.839 
13:35	46.4	46.4	46.4	77	39.6	0	2	248	0.00	29.839 
13:40	46.5	46.5	46.5	77	39.7	0	1	248	0.00	29.839 
13:45	46.5	46.5	46.5	77	39.7	0	2	248	0.00	29.850 
13:50	46.4	46.4	46.4	76	39.3	0	1	248	0.00	29.850 
13:55	46.4	46.4	46.4	76	39.3	0	3	248	0.00	29.850 
14:00	46.7	46.7	46.7	76	39.5	0	1	248	0.00	29.846 
14:05	46.8	46.8	46.8	74	39.0	0	2	248	0.00	29.846 
14:10	46.5	46.5	46.5	75	39.0	0	1	248	0.00	29.846 
14:15	46.2	46.2	46.2	75	38.7	0	1	248	0.00	29.844 
14:20	46.2	46.2	46.2	77	39.4	0	2	248	0.00	29.844 
14:25	46.2	46.2	46.2	76	39.1	1	4	90	0.00	29.844 
14:30	46.1	46.1	46.1	75	38.6	1	3	90	0.00	29.840 
14:35	45.7	45.7	45.7	75	38.2	0	2	225	0.00	29.840 
14:40	45.8	45.8	45.8	76	38.7	0	3	225	0.00	29.840 
14:45	45.7	45.7	45.7	76	38.6	0	2	225	0.00	29.834 
14:50	45.5	45.5	45.5	76	38.4	0	1	225	0.00	29.834 
14:55	45.5	45.5	45.5	77	38.7	0	2	338	0.00	29.834 
15:00	45.4	45.4	45.4	77	38.6	0	2	338	0.00	29.838 
15:05	45.5	45.5	45.5	78	39.0	0	2	292	0.00	29.838 
15:10	45.5	45.5	45.5	78	39.0	0	1	292	0.00	29.838 
15:15	45.4	45.4	45.4	78	38.9	0	3	292	0.00	29.848 
15:20	45.1	45.1	45.1	78	38.7	0	2	292	0.00	29.848 
15:25	44.9	44.9	44.9	78	38.5	0	2	292	0.00	29.848 
15:30	44.6	44.6	44.6	77	37.8	0	2	292	0.00	29.850 
15:35	44.3	44.3	44.3	78	37.9	0	2	292	0.00	29.850 
15:40	44.2	44.2	44.2	79	38.1	0	2	292	0.00	29.850 
15:45	44.1	44.1	44.1	79	38.0	0	2	292	0.00	29.862 
15:50	44.1	44.1	44.1	80	38.3	0	4	292	0.00	29.862 
15:55	44.1	44.1	44.1	80	38.3	1	3	112	0.00	29.862 
16:00	43.6	43.6	43.6	81	38.2	1	3	90	0.00	29.851 
16:05	43.5	43.5	43.5	81	38.1	0	3	90	0.00	29.851 
16:10	43.2	43.2	43.2	82	38.1	0	2	90	0.00	29.851 
16:15	43.2	43.2	43.2	83	38.4	0	1	90	0.00	29.865 
16:20	43.1	43.1	43.1	83	38.3	0	2	90	0.00	29.865 
16:25	42.9	42.9	42.9	83	38.1	0	1	90	0.00	29.865 
16:30	42.8	42.8	42.8	83	38.0	0	2	90	0.00	29.878 
16:35	42.8	42.8	42.8	83	38.0	1	4	90	0.00	29.878 
16:40	42.6	42.6	42.6	83	37.8	0	1	90	0.00	29.878 
16:45	42.5	42.5	42.5	83	37.7	0	1	90	0.00	29.875 
16:50	42.5	42.5	42.5	84	38.0	0	2	90	0.00	29.875 
16:55	42.5	42.5	42.5	84	38.0	0	2	90	0.00	29.875 
17:00	42.5	42.5	42.5	84	38.0	0	1	90	0.00	29.867 
17:05	42.5	42.5	42.5	84	38.0	0	2	90	0.00	29.867 
17:10	42.5	42.5	42.5	84	38.0	0	3	135	0.00	29.867 
17:15	42.6	42.6	42.6	84	38.1	0	1	135	0.00	29.868 
17:20	42.6	42.6	42.6	84	38.1	0	1	135	0.00	29.868 
17:25	42.6	42.6	42.6	84	38.1	0	1	135	0.00	29.868 
17:30	42.6	42.6	42.6	84	38.1	0	2	135	0.00	29.875 
17:35	42.6	42.6	42.6	84	38.1	0	1	135	0.00	29.875 
17:40	42.8	42.8	42.8	84	38.3	0	0	---	0.00	29.875 
17:45	42.8	42.8	42.8	84	38.3	0	0	---	0.00	29.876 
17:50	42.8	42.8	42.8	84	38.3	0	1	135	0.00	29.876 
17:55	42.8	42.8	42.8	84	38.3	0	0	---	0.00	29.876 
18:00	42.6	42.6	42.6	84	38.1	0	0	---	0.00	29.879 
18:05	42.6	42.6	42.6	84	38.1	0	0	---	0.00	29.879 
18:10	42.6	42.6	42.6	84	38.1	0	1	135	0.00	29.879 
18:15	42.5	42.5	42.5	84	38.0	0	0	---	0.00	29.879 
18:20	42.3	42.3	42.3	84	37.8	0	1	135	0.00	29.879 
18:25	42.2	42.2	42.2	84	37.7	0	1	135	0.00	29.879 
18:30	41.9	41.9	41.9	84	37.4	0	1	135	0.00	29.885 
18:35	41.8	41.8	41.8	85	37.6	0	0	---	0.00	29.885 
18:40	41.6	41.6	41.6	85	37.4	0	0	---	0.00	29.885 
18:45	41.6	41.6	41.6	85	37.4	0	0	---	0.00	29.882 
18:50	41.5	41.5	41.5	85	37.3	0	0	---	0.00	29.882 
18:55	41.2	41.2	41.2	85	37.0	0	0	---	0.00	29.882 
19:00	40.9	40.9	40.9	85	36.7	0	0	---	0.00	29.884 
19:05	40.5	40.5	40.5	85	36.4	0	0	---	0.00	29.884 
19:10	40.2	40.2	40.2	86	36.4	0	0	---	0.00	29.884 
19:15	39.8	39.8	39.8	86	36.0	0	0	---	0.00	29.886 
19:20	39.5	39.5	39.5	86	35.7	0	0	---	0.00	29.886 
19:25	39.1	39.1	39.1	86	35.3	0	0	---	0.00	29.886 
19:30	38.8	38.8	38.8	87	35.3	0	0	---	0.00	29.885 
19:35	38.6	38.6	38.6	88	35.4	0	0	---	0.00	29.885 
19:40	38.3	38.3	38.3	88	35.1	0	0	---	0.00	29.885 
19:45	37.9	37.9	37.9	88	34.7	0	0	---	0.00	29.887 
19:50	37.6	37.6	37.6	88	34.4	0	0	---	0.00	29.887 
19:55	37.3	37.3	37.3	88	34.1	0	0	---	0.00	29.887 
20:00	37.2	37.2	37.2	89	34.3	0	0	---	0.00	29.877 
20:05	37.0	37.0	37.0	89	34.1	0	0	---	0.00	29.877 
20:10	36.9	36.9	36.9	89	34.0	0	0	---	0.00	29.877 
20:15	36.9	36.9	36.9	90	34.2	0	0	---	0.00	29.879 
20:20	37.0	37.0	37.0	90	34.3	0	1	135	0.00	29.879 
20:25	37.2	37.2	37.2	91	34.8	0	0	---	0.00	29.879 
20:30	37.2	37.2	37.2	91	34.8	0	0	---	0.00	29.871 
20:35	37.0	37.0	37.0	91	34.6	0	0	---	0.00	29.871 
20:40	36.9	36.9	36.9	91	34.5	0	0	---	0.00	29.871 
20:45	37.0	37.0	37.0	92	34.9	0	1	135	0.00	29.872 
20:50	37.2	37.2	37.2	92	35.1	0	1	135	0.00	29.872 
20:55	37.3	37.3	37.3	92	35.2	0	1	135	0.00	29.872 
21:00	37.5	37.5	37.5	92	35.4	0	1	135	0.00	29.863 
21:05	37.6	37.6	37.6	92	35.5	0	1	135	0.00	29.863 
21:10	37.6	37.6	37.6	92	35.5	0	0	---	0.00	29.863 
21:15	37.5	37.5	37.5	92	35.4	0	1	135	0.00	29.863 
21:20	37.5	37.5	37.5	92	35.4	0	1	135	0.00	29.863 
21:25	37.5	37.5	37.5	92	35.4	0	1	135	0.00	29.863 
21:30	37.5	37.5	37.5	93	35.7	0	2	135	0.00	29.862 
21:35	37.5	37.5	37.5	93	35.7	0	2	135	0.00	29.862 
21:40	37.5	37.5	37.5	93	35.7	0	1	135	0.00	29.862 
21:45	37.3	37.3	37.3	93	35.5	0	2	135	0.00	29.859 
21:50	37.5	37.5	37.5	93	35.7	0	2	135	0.00	29.859 
21:55	37.6	37.6	37.6	93	35.8	0	2	135	0.00	29.859 
22:00	37.6	37.6	37.6	93	35.8	0	2	135	0.00	29.851 
22:05	37.5	37.5	37.5	93	35.7	0	1	135	0.00	29.851 
22:10	37.5	37.5	37.5	93	35.7	0	1	135	0.00	29.851 
22:15	37.5	37.5	37.5	93	35.7	0	1	135	0.00	29.853 
22:20	37.5	37.5	37.5	93	35.7	0	2	135	0.00	29.853 
22:25	37.5	37.5	37.5	93	35.7	0	2	135	0.00	29.853 
22:30	37.5	37.5	37.5	93	35.7	0	2	135	0.00	29.848 
22:35	37.5	37.5	37.5	93	35.7	0	2	135	0.00	29.848 
22:40	37.6	37.6	37.6	93	35.8	1	3	135	0.00	29.848 
22:45	37.8	37.8	37.8	93	36.0	1	3	135	0.00	29.837 
22:50	37.9	37.9	37.9	93	36.1	1	3	135	0.00	29.837 
22:55	37.9	37.9	37.9	93	36.1	1	4	112	0.00	29.837 
23:00	38.0	38.0	38.0	93	36.2	1	4	112	0.00	29.832 
23:05	38.0	38.0	38.0	93	36.2	0	2	68	0.00	29.832 
23:10	38.2	38.2	38.2	93	36.4	1	3	68	0.00	29.832 
23:15	38.3	38.3	38.3	93	36.5	1	3	68	0.00	29.820 
23:20	38.2	38.2	38.2	93	36.4	1	3	68	0.00	29.820 
23:25	38.0	38.0	38.0	93	36.2	1	4	90	0.00	29.820 
23:30	37.9	37.9	37.9	93	36.1	1	3	90	0.00	29.815 
23:35	37.9	37.9	37.9	93	36.1	1	4	90	0.00	29.815 
23:40	37.8	37.8	37.8	93	36.0	1	3	90	0.00	29.815 
23:45	37.8	37.8	37.8	93	36.0	0	2	90	0.00	29.815 
23:50	37.8	37.8	37.8	93	36.0	0	3	90	0.00	29.815 
23:55	37.8	37.8	37.8	93	36.0	0	2	90	0.00	29.815 

CoCoRaHS
IN-AL-39
A2 Web Hosting
Creative Commons License
GoDaddy
search engine by freefind advanced

loaded 2018-11-17 12:11:10 • last modified 2010-11-18 10:43:29
Privacy PolicyDisclaimer
• wx.awcolley.com is powered by PmWiki v.2002016 •
• all content (unless otherwise noted) © 2018 A W Colley